sensor_id;sensor_type;location;lat;lon;timestamp;pressure;altitude;pressure_sealevel;temperature;humidity
79006;BME280;77501;51.072;3.536;2024-03-23T20:25:02;100990.34;;;17.10;50.63
79006;BME280;77501;51.072;3.536;2024-03-23T20:27:27;100996.19;;;17.25;49.85
79006;BME280;77501;51.072;3.536;2024-03-23T20:29:53;100990.72;;;17.37;49.72
79006;BME280;77501;51.072;3.536;2024-03-23T20:32:18;100990.72;;;17.49;49.25
79006;BME280;77501;51.072;3.536;2024-03-23T20:34:44;100992.75;;;17.53;49.06
79006;BME280;77501;51.072;3.536;2024-03-23T20:37:10;100987.84;;;17.67;48.95
79006;BME280;77501;51.072;3.536;2024-03-23T20:39:35;100976.66;;;17.69;48.24
79006;BME280;77501;51.072;3.536;2024-03-23T20:42:01;101001.91;;;17.82;48.21
79006;BME280;77501;51.072;3.536;2024-03-23T20:44:26;100965.63;;;17.64;48.42
79006;BME280;77501;51.072;3.536;2024-03-23T20:46:51;100993.78;;;17.87;48.08
79006;BME280;77501;51.072;3.536;2024-03-23T20:49:17;101007.09;;;17.96;47.92
79006;BME280;77501;51.072;3.536;2024-03-23T20:51:42;101002.56;;;18.01;47.51
79006;BME280;77501;51.072;3.536;2024-03-23T20:54:08;100986.75;;;18.03;47.47
79006;BME280;77501;51.072;3.536;2024-03-23T20:56:38;100993.06;;;18.04;47.34
79006;BME280;77501;51.072;3.536;2024-03-23T20:59:03;100945.28;;;17.83;47.42
79006;BME280;77501;51.072;3.536;2024-03-23T21:01:29;100977.22;;;18.06;47.34
79006;BME280;77501;51.072;3.536;2024-03-23T21:03:58;100954.66;;;17.87;47.34
79006;BME280;77501;51.072;3.536;2024-03-23T21:06:23;100985.69;;;18.04;47.34
79006;BME280;77501;51.072;3.536;2024-03-23T21:08:49;100950.53;;;17.84;47.35
79006;BME280;77501;51.072;3.536;2024-03-23T21:11:14;100965.69;;;17.92;47.15
79006;BME280;77501;51.072;3.536;2024-03-23T21:13:39;100991.75;;;18.06;47.23
79006;BME280;77501;51.072;3.536;2024-03-23T21:16:05;101004.34;;;18.07;46.97
79006;BME280;77501;51.072;3.536;2024-03-23T21:18:32;100968.94;;;17.89;46.94
79006;BME280;77501;51.072;3.536;2024-03-23T21:21:02;100999.69;;;18.08;47.05
79006;BME280;77501;51.072;3.536;2024-03-23T21:23:29;100993.41;;;18.07;47.24
79006;BME280;77501;51.072;3.536;2024-03-23T21:26:01;100983.41;;;18.01;47.06
79006;BME280;77501;51.072;3.536;2024-03-23T21:28:26;100983.91;;;17.98;47.28
79006;BME280;77501;51.072;3.536;2024-03-23T21:30:53;100949.69;;;17.84;46.90
79006;BME280;77501;51.072;3.536;2024-03-23T21:33:18;100976.16;;;18.07;47.06
79006;BME280;77501;51.072;3.536;2024-03-23T21:35:44;100950.28;;;17.86;46.96
79006;BME280;77501;51.072;3.536;2024-03-23T21:38:10;100981.88;;;18.05;46.95
79006;BME280;77501;51.072;3.536;2024-03-23T21:40:35;100950.84;;;17.88;47.38
79006;BME280;77501;51.072;3.536;2024-03-23T21:43:03;100979.97;;;18.06;47.12
79006;BME280;77501;51.072;3.536;2024-03-23T21:45:28;100944.81;;;17.86;47.12
79006;BME280;77501;51.072;3.536;2024-03-23T21:47:54;100972.47;;;18.01;47.02
79006;BME280;77501;51.072;3.536;2024-03-23T21:50:19;100981.88;;;18.05;46.86
79006;BME280;77501;51.072;3.536;2024-03-23T21:52:44;100931.50;;;17.66;47.11
79006;BME280;77501;51.072;3.536;2024-03-23T21:55:10;100988.03;;;18.01;47.33
79006;BME280;77501;51.072;3.536;2024-03-23T21:57:35;100941.59;;;17.77;47.13
79006;BME280;77501;51.072;3.536;2024-03-23T22:00:01;100938.03;;;17.77;47.11
79006;BME280;77501;51.072;3.536;2024-03-23T22:02:26;100973.19;;;17.97;47.31
79006;BME280;77501;51.072;3.536;2024-03-23T22:04:51;100979.38;;;18.04;46.98
79006;BME280;77501;51.072;3.536;2024-03-23T22:07:17;100979.13;;;18.05;46.92
79006;BME280;77501;51.072;3.536;2024-03-23T22:09:42;100941.56;;;17.89;46.85
79006;BME280;77501;51.072;3.536;2024-03-23T22:12:08;100966.63;;;18.09;46.73
79006;BME280;77501;51.072;3.536;2024-03-23T22:14:33;100959.47;;;18.08;46.90
79006;BME280;77501;51.072;3.536;2024-03-23T22:16:58;100958.16;;;18.11;46.63
79006;BME280;77501;51.072;3.536;2024-03-23T22:19:25;100933.25;;;17.96;46.79
79006;BME280;77501;51.072;3.536;2024-03-23T22:21:52;100961.13;;;18.09;46.65
79006;BME280;77501;51.072;3.536;2024-03-23T22:24:17;100963.16;;;18.14;46.21
79006;BME280;77501;51.072;3.536;2024-03-23T22:26:43;100960.19;;;18.15;46.71
79006;BME280;77501;51.072;3.536;2024-03-23T22:29:08;100951.59;;;18.12;46.86
79006;BME280;77501;51.072;3.536;2024-03-23T22:31:34;100950.66;;;18.18;46.78
79006;BME280;77501;51.072;3.536;2024-03-23T22:33:59;100909.69;;;17.95;46.68
79006;BME280;77501;51.072;3.536;2024-03-23T22:36:25;100919.66;;;18.01;46.49
79006;BME280;77501;51.072;3.536;2024-03-23T22:38:50;100948.16;;;18.16;46.71
79006;BME280;77501;51.072;3.536;2024-03-23T22:41:15;100950.66;;;18.18;46.61
79006;BME280;77501;51.072;3.536;2024-03-23T22:43:42;100938.03;;;18.17;46.60
79006;BME280;77501;51.072;3.536;2024-03-23T22:46:07;100935.56;;;18.15;46.79
79006;BME280;77501;51.072;3.536;2024-03-23T22:48:34;100930.41;;;18.19;46.56
79006;BME280;77501;51.072;3.536;2024-03-23T22:51:01;100920.22;;;18.14;46.35
79006;BME280;77501;51.072;3.536;2024-03-23T22:53:27;100921.38;;;18.18;46.57
79006;BME280;77501;51.072;3.536;2024-03-23T22:55:54;100913.66;;;18.15;46.21
79006;BME280;77501;51.072;3.536;2024-03-23T22:58:21;100915.56;;;18.15;46.44
79006;BME280;77501;51.072;3.536;2024-03-23T23:00:47;100909.00;;;18.16;46.47
79006;BME280;77501;51.072;3.536;2024-03-23T23:03:15;100868.91;;;17.93;46.38
79006;BME280;77501;51.072;3.536;2024-03-23T23:05:41;100915.56;;;18.15;46.41
79006;BME280;77501;51.072;3.536;2024-03-23T23:08:08;100903.41;;;18.11;46.45
79006;BME280;77501;51.072;3.536;2024-03-23T23:10:34;100905.09;;;18.12;46.02
79006;BME280;77501;51.072;3.536;2024-03-23T23:13:01;100859.63;;;17.94;46.40
79006;BME280;77501;51.072;3.536;2024-03-23T23:15:26;100892.16;;;18.07;46.00
79006;BME280;77501;51.072;3.536;2024-03-23T23:17:52;100892.22;;;18.12;46.60
79006;BME280;77501;51.072;3.536;2024-03-23T23:20:18;100890.25;;;18.08;46.45
79006;BME280;77501;51.072;3.536;2024-03-23T23:22:44;100893.81;;;18.08;46.70
79006;BME280;77501;51.072;3.536;2024-03-23T23:25:09;100883.25;;;18.00;46.29
79006;BME280;77501;51.072;3.536;2024-03-23T23:27:36;100885.50;;;18.03;46.30
79006;BME280;77501;51.072;3.536;2024-03-23T23:30:05;100883.25;;;18.00;46.25
79006;BME280;77501;51.072;3.536;2024-03-23T23:32:31;100901.69;;;18.05;46.02
79006;BME280;77501;51.072;3.536;2024-03-23T23:34:58;100887.38;;;18.03;46.16
79006;BME280;77501;51.072;3.536;2024-03-23T23:37:24;100891.19;;;18.02;46.17
79006;BME280;77501;51.072;3.536;2024-03-23T23:39:50;100893.72;;;18.03;46.44
79006;BME280;77501;51.072;3.536;2024-03-23T23:42:15;100864.28;;;17.82;46.54
79006;BME280;77501;51.072;3.536;2024-03-23T23:44:40;100864.66;;;17.85;46.46
79006;BME280;77501;51.072;3.536;2024-03-23T23:47:06;100854.34;;;17.76;46.48
79006;BME280;77501;51.072;3.536;2024-03-23T23:49:31;100890.28;;;17.96;46.44
79006;BME280;77501;51.072;3.536;2024-03-23T23:51:56;100900.75;;;17.99;46.65
79006;BME280;77501;51.072;3.536;2024-03-23T23:54:22;100856.81;;;17.77;46.53
79006;BME280;77501;51.072;3.536;2024-03-23T23:56:47;100889.72;;;17.94;46.85
79006;BME280;77501;51.072;3.536;2024-03-23T23:59:12;100892.44;;;17.94;46.59
